Time;durP1;ratioP1;P1;durP2;ratioP2;P2;SDS_P1;SDS_P2;PMS_P1;PMS_P2;Temp;Humidity;BMP_temperature;BMP_pressure;BME280_temperature;BME280_humidity;BME280_pressure;Samples;Min_cycle;Max_cycle;Signal;HPM_P1;HPM_P2
2020/12/25 00:00:57;;;;;;;2.67;2.47;;;4.40;89.40;;;;;;5020087;28;20254;-79
2020/12/25 00:03:36;;;;;;;2.33;2.10;;;4.40;89.50;;;;;;5018645;28;20439;-81
2020/12/25 00:06:04;;;;;;;2.63;2.43;;;4.40;89.70;;;;;;5033378;28;20442;-82
2020/12/25 00:08:31;;;;;;;2.63;2.43;;;4.40;89.70;;;;;;5037329;28;20222;-81
2020/12/25 00:10:58;;;;;;;2.50;2.10;;;4.40;90.00;;;;;;5043792;28;20198;-81
2020/12/25 00:13:27;;;;;;;2.87;2.67;;;4.40;90.00;;;;;;5019933;28;20235;-82
2020/12/25 00:15:54;;;;;;;2.57;2.37;;;4.50;89.70;;;;;;5022582;28;20201;-82
2020/12/25 00:18:22;;;;;;;2.70;2.47;;;4.60;89.60;;;;;;5024172;28;20297;-82
2020/12/25 00:20:49;;;;;;;2.83;2.60;;;4.60;89.90;;;;;;5021463;28;20212;-80
2020/12/25 00:23:17;;;;;;;2.30;2.10;;;4.60;90.00;;;;;;5021651;28;20211;-80
2020/12/25 00:25:44;;;;;;;2.13;2.00;;;4.50;88.80;;;;;;5027224;28;20237;-80
2020/12/25 00:28:13;;;;;;;1.90;1.80;;;4.70;88.80;;;;;;5024582;28;20203;-78
2020/12/25 00:30:43;;;;;;;3.90;2.20;;;4.70;88.60;;;;;;5026520;28;20916;-82
2020/12/25 00:33:13;;;;;;;2.73;2.17;;;4.90;88.90;;;;;;5021145;28;20205;-82
2020/12/25 00:35:42;;;;;;;2.33;2.13;;;4.70;88.90;;;;;;5020905;28;20585;-83
2020/12/25 00:38:10;;;;;;;2.37;2.17;;;4.70;89.40;;;;;;5003231;28;20218;-82
2020/12/25 00:40:42;;;;;;;3.27;2.30;;;4.80;89.50;;;;;;5020031;28;20718;-81
2020/12/25 00:43:12;;;;;;;2.40;2.20;;;4.70;89.80;;;;;;5020411;28;20511;-79
2020/12/25 00:45:40;;;;;;;2.60;2.40;;;4.70;89.50;;;;;;5016703;28;20233;-80
2020/12/25 00:48:08;;;;;;;2.40;2.20;;;4.70;89.60;;;;;;5021634;28;20210;-81
2020/12/25 00:50:35;;;;;;;2.90;2.70;;;4.70;89.80;;;;;;5020265;28;20278;-81
2020/12/25 00:53:03;;;;;;;2.47;2.27;;;4.70;89.80;;;;;;5018807;28;20209;-81
2020/12/25 00:55:30;;;;;;;2.60;2.40;;;4.80;89.70;;;;;;5018216;28;20194;-81
2020/12/25 00:57:57;;;;;;;3.30;2.97;;;4.70;90.00;;;;;;5019418;28;20205;-80
2020/12/25 01:00:25;;;;;;;4.50;3.23;;;4.70;90.10;;;;;;5016305;28;20565;-82
2020/12/25 01:02:52;;;;;;;4.13;3.27;;;4.70;90.30;;;;;;5024133;28;20210;-82
2020/12/25 01:05:21;;;;;;;4.27;3.70;;;4.60;90.50;;;;;;5020497;28;20637;-82
2020/12/25 01:07:49;;;;;;;4.33;3.70;;;4.60;90.70;;;;;;5020777;28;20202;-80
2020/12/25 01:10:17;;;;;;;4.60;4.00;;;4.50;90.80;;;;;;5028272;28;20202;-81
2020/12/25 01:12:44;;;;;;;5.20;3.53;;;4.50;90.90;;;;;;5017009;28;20716;-80
2020/12/25 01:15:12;;;;;;;4.60;4.03;;;4.50;90.80;;;;;;5019857;28;20220;-81
2020/12/25 01:17:39;;;;;;;6.73;4.50;;;4.50;91.10;;;;;;5022602;28;20197;-80
2020/12/25 01:20:07;;;;;;;4.30;3.90;;;4.50;91.30;;;;;;5017593;28;20270;-82
2020/12/25 01:22:35;;;;;;;4.60;4.20;;;4.50;91.20;;;;;;5017386;28;20290;-81
2020/12/25 01:25:03;;;;;;;6.07;4.30;;;4.50;91.30;;;;;;5017465;28;20195;-82
2020/12/25 01:27:30;;;;;;;4.97;4.20;;;4.40;91.50;;;;;;5023713;28;20221;-80
2020/12/25 01:29:58;;;;;;;5.30;4.23;;;4.50;91.60;;;;;;5025970;28;20301;-81
2020/12/25 01:32:26;;;;;;;3.57;3.20;;;4.50;91.60;;;;;;5031982;28;20196;-80
2020/12/25 01:34:53;;;;;;;5.67;4.40;;;4.40;91.70;;;;;;5047146;28;20203;-83
2020/12/25 01:37:20;;;;;;;5.80;4.90;;;4.40;91.80;;;;;;5044079;28;20264;-81
2020/12/25 01:39:49;;;;;;;4.97;4.47;;;4.30;92.00;;;;;;5047615;28;20181;-81
2020/12/25 01:42:16;;;;;;;5.73;4.90;;;4.30;92.20;;;;;;5036356;28;20272;-81
2020/12/25 01:44:44;;;;;;;5.43;4.83;;;4.30;92.30;;;;;;5037415;28;20192;-80
2020/12/25 01:47:13;;;;;;;5.80;4.80;;;4.30;92.40;;;;;;5042315;28;20278;-80
2020/12/25 01:49:41;;;;;;;5.53;4.90;;;4.20;92.50;;;;;;5043497;28;20259;-80
2020/12/25 01:52:09;;;;;;;5.30;4.70;;;4.30;92.60;;;;;;5039076;28;20194;-79
2020/12/25 01:54:37;;;;;;;5.77;4.43;;;4.30;92.60;;;;;;5020226;28;20672;-81
2020/12/25 01:57:06;;;;;;;5.60;4.93;;;4.30;92.60;;;;;;5017480;28;20196;-83
2020/12/25 01:59:34;;;;;;;6.03;4.70;;;4.30;92.60;;;;;;5016102;28;20414;-81
2020/12/25 02:02:01;;;;;;;4.77;4.27;;;4.30;92.70;;;;;;5018142;28;20291;-82
2020/12/25 02:04:29;;;;;;;5.57;4.70;;;4.30;92.60;;;;;;5015512;28;20214;-81
2020/12/25 02:06:56;;;;;;;7.13;5.17;;;4.30;92.70;;;;;;5016392;28;20220;-81
2020/12/25 02:09:24;;;;;;;5.70;4.83;;;4.30;92.80;;;;;;5015739;28;20755;-82
2020/12/25 02:11:52;;;;;;;5.83;5.23;;;4.20;92.70;;;;;;5014423;28;20372;-81
2020/12/25 02:14:21;;;;;;;6.93;5.03;;;4.20;92.60;;;;;;5018449;28;20205;-81
2020/12/25 02:16:48;;;;;;;6.03;4.97;;;4.10;92.60;;;;;;5016236;28;20228;-81
2020/12/25 02:19:16;;;;;;;6.10;4.77;;;4.10;92.70;;;;;;5021820;28;20270;-82
2020/12/25 02:21:44;;;;;;;6.80;5.20;;;4.10;92.80;;;;;;5014637;28;20635;-83
2020/12/25 02:24:11;;;;;;;7.37;4.43;;;4.20;92.80;;;;;;5015484;28;20306;-81
2020/12/25 02:26:38;;;;;;;5.90;5.30;;;4.10;92.70;;;;;;5013589;28;20220;-82
2020/12/25 02:29:06;;;;;;;5.80;4.87;;;4.10;92.50;;;;;;5017469;28;20205;-79
2020/12/25 02:31:33;;;;;;;5.47;4.93;;;4.20;92.60;;;;;;5013968;28;20411;-81
2020/12/25 02:34:01;;;;;;;6.27;4.87;;;4.10;92.60;;;;;;5016086;28;20444;-81
2020/12/25 02:36:29;;;;;;;6.43;4.93;;;4.20;92.60;;;;;;5014547;28;20668;-80
2020/12/25 02:38:57;;;;;;;5.23;4.70;;;4.20;92.30;;;;;;5017076;28;20217;-81
2020/12/25 02:41:24;;;;;;;4.70;4.10;;;4.20;92.20;;;;;;5019264;28;20268;-81
2020/12/25 02:43:52;;;;;;;6.27;4.00;;;4.30;92.20;;;;;;5014293;28;20194;-80
2020/12/25 02:46:20;;;;;;;5.47;4.83;;;4.30;92.10;;;;;;5021612;28;20507;-81
2020/12/25 02:48:48;;;;;;;4.87;4.23;;;4.30;92.10;;;;;;5048904;28;20274;-78
2020/12/25 02:51:18;;;;;;;5.43;4.80;;;4.30;92.00;;;;;;5021747;28;20196;-79
2020/12/25 02:53:45;;;;;;;5.33;4.83;;;4.30;92.00;;;;;;5024170;28;20199;-81
2020/12/25 02:56:15;;;;;;;5.00;4.50;;;4.30;91.90;;;;;;5018269;28;20205;-83
2020/12/25 02:58:43;;;;;;;4.73;4.23;;;4.30;91.90;;;;;;5027069;28;20190;-81
2020/12/25 03:01:11;;;;;;;4.93;4.50;;;4.40;91.80;;;;;;5043982;28;20193;-80
2020/12/25 03:03:39;;;;;;;5.10;3.73;;;4.40;91.60;;;;;;5035232;28;20188;-79
2020/12/25 03:06:07;;;;;;;5.87;4.40;;;4.50;91.60;;;;;;5025773;28;20355;-79
2020/12/25 03:08:35;;;;;;;4.70;4.20;;;4.50;91.60;;;;;;5019272;28;20205;-82
2020/12/25 03:11:03;;;;;;;4.97;4.20;;;4.50;91.60;;;;;;5023956;28;20201;-81
2020/12/25 03:13:32;;;;;;;5.07;4.20;;;4.40;91.50;;;;;;5014543;28;20217;-83
2020/12/25 03:16:00;;;;;;;4.47;4.07;;;4.50;91.60;;;;;;5014523;28;20199;-81
2020/12/25 03:18:27;;;;;;;6.20;4.53;;;4.50;91.60;;;;;;5021213;28;20690;-82
2020/12/25 03:20:55;;;;;;;4.03;3.63;;;4.50;91.60;;;;;;5012344;28;20205;-81
2020/12/25 03:23:22;;;;;;;6.20;4.30;;;4.40;91.60;;;;;;5017197;28;20203;-81
2020/12/25 03:25:49;;;;;;;4.80;4.23;;;4.40;91.60;;;;;;5013900;28;20222;-80
2020/12/25 03:28:17;;;;;;;4.87;4.17;;;4.40;91.70;;;;;;5021385;28;20209;-81
2020/12/25 03:30:45;;;;;;;4.63;4.17;;;4.40;91.70;;;;;;5023798;28;20364;-81
2020/12/25 03:33:13;;;;;;;6.20;4.20;;;4.40;91.80;;;;;;5016015;28;20251;-80
2020/12/25 03:35:50;;;;;;;5.60;4.30;;;4.40;91.70;;;;;;5017166;28;20229;-83
2020/12/25 03:38:18;;;;;;;5.70;4.37;;;4.40;91.70;;;;;;5028697;28;20216;-80
2020/12/25 03:40:45;;;;;;;4.90;4.33;;;4.40;91.80;;;;;;5016709;28;20288;-81
2020/12/25 03:43:13;;;;;;;7.10;4.90;;;4.40;91.90;;;;;;5014402;28;20220;-81
2020/12/25 03:45:40;;;;;;;6.63;5.17;;;4.50;92.00;;;;;;5013099;28;20660;-83
2020/12/25 03:48:09;;;;;;;5.17;4.40;;;4.50;92.00;;;;;;5024106;28;20619;-83
2020/12/25 03:50:36;;;;;;;5.33;4.53;;;4.40;92.00;;;;;;5016448;28;20200;-82
2020/12/25 03:53:04;;;;;;;7.13;4.87;;;4.40;92.10;;;;;;5015818;28;20201;-81
2020/12/25 03:55:31;;;;;;;4.67;4.10;;;4.40;92.20;;;;;;5017376;28;20762;-80
2020/12/25 03:57:59;;;;;;;5.33;4.83;;;4.40;92.10;;;;;;5013347;28;20198;-80
2020/12/25 04:00:26;;;;;;;5.33;4.73;;;4.50;92.20;;;;;;5017641;28;20198;-81
2020/12/25 04:02:53;;;;;;;4.67;4.20;;;4.50;92.10;;;;;;5012758;28;20214;-81
2020/12/25 04:05:22;;;;;;;4.67;4.20;;;4.50;92.00;;;;;;5017077;28;20232;-82
2020/12/25 04:07:49;;;;;;;5.97;3.80;;;4.50;91.90;;;;;;5015364;28;20225;-81
2020/12/25 04:10:17;;;;;;;4.83;4.43;;;4.50;91.80;;;;;;5020889;28;20488;-83
2020/12/25 04:12:44;;;;;;;4.40;4.00;;;4.50;91.90;;;;;;5021357;28;20202;-81
2020/12/25 04:15:12;;;;;;;7.37;4.53;;;4.60;91.90;;;;;;5022855;28;20707;-80
2020/12/25 04:17:40;;;;;;;5.57;4.30;;;4.50;92.00;;;;;;5024884;28;20181;-81
2020/12/25 04:20:08;;;;;;;5.73;4.93;;;4.50;92.10;;;;;;5001087;28;20210;-80
2020/12/25 04:22:36;;;;;;;4.50;4.03;;;4.50;92.30;;;;;;5017361;28;20202;-80
2020/12/25 04:25:04;;;;;;;4.90;4.50;;;4.50;92.40;;;;;;5019821;28;20220;-79
2020/12/25 04:27:32;;;;;;;6.80;4.50;;;4.50;92.60;;;;;;5042235;28;20233;-80
2020/12/25 04:29:59;;;;;;;5.63;4.17;;;4.50;92.50;;;;;;5037366;28;20195;-80
2020/12/25 04:32:26;;;;;;;4.70;4.10;;;4.50;92.50;;;;;;5029060;28;20213;-81
2020/12/25 04:34:54;;;;;;;5.03;4.17;;;4.50;92.50;;;;;;5016996;28;20291;-81
2020/12/25 04:37:21;;;;;;;5.50;4.60;;;4.40;92.60;;;;;;5026176;28;20236;-82
2020/12/25 04:39:49;;;;;;;4.87;4.37;;;4.50;92.60;;;;;;5035580;28;20196;-81
2020/12/25 04:42:17;;;;;;;5.50;4.60;;;4.50;92.60;;;;;;5035049;28;20425;-80
2020/12/25 04:44:44;;;;;;;4.63;4.23;;;4.40;92.70;;;;;;5032424;28;20423;-81
2020/12/25 04:47:12;;;;;;;4.80;4.20;;;4.50;92.80;;;;;;5041766;28;20232;-80
2020/12/25 04:49:40;;;;;;;6.47;4.77;;;4.40;92.90;;;;;;5036550;28;20205;-82
2020/12/25 04:52:08;;;;;;;5.03;4.40;;;4.50;93.00;;;;;;5029871;28;20420;-81
2020/12/25 04:54:38;;;;;;;4.60;4.20;;;4.40;93.10;;;;;;5036501;28;20296;-82
2020/12/25 04:57:06;;;;;;;4.70;4.13;;;4.30;93.10;;;;;;5036621;28;20487;-82
2020/12/25 04:59:33;;;;;;;4.93;4.43;;;4.20;93.10;;;;;;5025172;28;20463;-81
2020/12/25 05:02:05;;;;;;;5.80;4.50;;;4.20;93.20;;;;;;5026050;28;20227;-80
2020/12/25 05:04:32;;;;;;;5.20;4.10;;;4.30;93.40;;;;;;5038842;28;20252;-81
2020/12/25 05:07:02;;;;;;;5.47;4.20;;;4.20;93.30;;;;;;5016714;28;20225;-81
2020/12/25 05:09:30;;;;;;;6.43;4.50;;;4.20;93.30;;;;;;5019810;28;20978;-81
2020/12/25 05:11:58;;;;;;;5.33;4.70;;;4.20;93.30;;;;;;5014682;28;20214;-82
2020/12/25 05:14:33;;;;;;;6.90;4.20;;;4.30;93.30;;;;;;5020329;28;20648;-82
2020/12/25 05:17:01;;;;;;;7.13;4.93;;;4.30;93.30;;;;;;5025192;28;20201;-81
2020/12/25 05:19:29;;;;;;;4.57;4.17;;;4.30;93.20;;;;;;5026654;28;20267;-82
2020/12/25 05:21:59;;;;;;;6.07;4.83;;;4.30;93.30;;;;;;5015849;28;20206;-79
2020/12/25 05:24:29;;;;;;;5.10;4.47;;;4.30;93.30;;;;;;5020460;28;20202;-81
2020/12/25 05:26:57;;;;;;;5.27;4.77;;;4.30;93.30;;;;;;5017281;28;20244;-81
2020/12/25 05:29:27;;;;;;;5.17;4.67;;;4.30;93.30;;;;;;5015045;28;20206;-83
2020/12/25 05:31:56;;;;;;;5.93;4.67;;;4.30;93.30;;;;;;5020071;28;20202;-81
2020/12/25 05:34:23;;;;;;;5.23;4.27;;;4.40;93.30;;;;;;5021354;28;20213;-82
2020/12/25 05:37:06;;;;;;;5.43;4.73;;;4.40;93.40;;;;;;5013284;28;20330;-81
2020/12/25 05:39:36;;;;;;;4.77;4.27;;;4.40;93.30;;;;;;5017573;28;20423;-81
2020/12/25 05:42:06;;;;;;;4.73;4.33;;;4.40;93.30;;;;;;5015248;28;20202;-81
2020/12/25 05:44:40;;;;;;;5.70;5.10;;;4.40;93.20;;;;;;5017994;28;20196;-82
2020/12/25 05:47:09;;;;;;;5.37;4.57;;;4.40;93.10;;;;;;5036093;28;20228;-81
2020/12/25 05:49:36;;;;;;;5.13;3.97;;;4.40;93.10;;;;;;5024761;28;20534;-80
2020/12/25 05:52:04;;;;;;;6.20;4.20;;;4.50;93.10;;;;;;5019248;28;20391;-81
2020/12/25 05:54:31;;;;;;;5.17;4.57;;;4.50;93.00;;;;;;5043016;28;20204;-82
2020/12/25 05:56:59;;;;;;;3.90;3.43;;;4.50;93.00;;;;;;5034144;28;20198;-80
2020/12/25 05:59:27;;;;;;;4.80;3.60;;;4.50;93.10;;;;;;5031500;28;20194;-81
2020/12/25 06:01:56;;;;;;;4.70;4.20;;;4.40;93.00;;;;;;5020702;28;20205;-81
2020/12/25 06:04:27;;;;;;;5.03;4.03;;;4.50;93.10;;;;;;5014471;28;20213;-80
2020/12/25 06:06:55;;;;;;;5.27;4.57;;;4.50;93.10;;;;;;5018383;28;20240;-81
2020/12/25 06:09:29;;;;;;;6.03;4.47;;;4.60;93.00;;;;;;5016850;28;20213;-82
2020/12/25 06:11:58;;;;;;;4.73;4.30;;;4.40;93.00;;;;;;5012256;28;20202;-80
2020/12/25 06:14:25;;;;;;;5.87;4.17;;;4.40;93.00;;;;;;5013561;28;20648;-82
2020/12/25 06:17:00;;;;;;;4.53;4.00;;;4.40;92.70;;;;;;5012855;28;20206;-79
2020/12/25 06:19:40;;;;;;;5.43;4.20;;;4.40;92.80;;;;;;5012142;28;20217;-81
2020/12/25 06:22:16;;;;;;;5.13;4.33;;;4.40;92.80;;;;;;5013944;28;20232;-83
2020/12/25 06:24:45;;;;;;;4.53;3.77;;;4.40;92.80;;;;;;5030331;28;20661;-79
2020/12/25 06:27:14;;;;;;;5.93;4.40;;;4.40;92.80;;;;;;5013259;28;20251;-82
2020/12/25 06:29:43;;;;;;;6.03;4.63;;;4.30;92.90;;;;;;5016671;28;20214;-82
2020/12/25 06:32:11;;;;;;;5.77;5.17;;;4.30;92.90;;;;;;4997323;28;20794;-81
2020/12/25 06:34:47;;;;;;;6.37;4.50;;;4.30;93.00;;;;;;5018311;28;20216;-81
2020/12/25 06:37:16;;;;;;;5.53;4.60;;;4.30;93.00;;;;;;5015159;28;20309;-81
2020/12/25 06:39:54;;;;;;;4.87;4.17;;;4.20;93.00;;;;;;5028654;28;20204;-81
2020/12/25 06:42:28;;;;;;;6.13;5.23;;;4.20;93.00;;;;;;5017827;28;20216;-81
2020/12/25 06:44:56;;;;;;;5.53;5.03;;;4.20;92.90;;;;;;5014954;28;20213;-80
2020/12/25 06:47:29;;;;;;;4.50;4.07;;;4.20;92.90;;;;;;5014234;28;20237;-82
2020/12/25 06:49:58;;;;;;;6.93;4.20;;;4.20;92.90;;;;;;5015369;28;20202;-82
2020/12/25 06:52:31;;;;;;;4.67;4.17;;;4.10;92.90;;;;;;5021360;28;20208;-82
2020/12/25 06:54:59;;;;;;;4.80;4.30;;;4.20;92.80;;;;;;5022624;28;20196;-81
2020/12/25 06:57:28;;;;;;;6.17;4.70;;;4.10;92.80;;;;;;5031735;28;20268;-79
2020/12/25 06:59:58;;;;;;;4.80;4.00;;;4.10;92.80;;;;;;5021242;28;20793;-80
2020/12/25 07:02:26;;;;;;;5.27;4.30;;;4.10;92.80;;;;;;5030472;28;20221;-81
2020/12/25 07:05:01;;;;;;;4.67;4.10;;;4.10;92.70;;;;;;5038797;28;20223;-80
2020/12/25 07:07:32;;;;;;;4.10;3.70;;;4.00;92.60;;;;;;5022827;28;20227;-81
2020/12/25 07:10:07;;;;;;;3.73;3.40;;;4.10;92.60;;;;;;5031453;28;20192;-81
2020/12/25 07:12:35;;;;;;;5.70;3.83;;;4.10;92.50;;;;;;5042463;28;20378;-82
2020/12/25 07:15:05;;;;;;;5.43;3.63;;;4.10;92.50;;;;;;5049060;28;21016;-82
2020/12/25 07:17:32;;;;;;;3.83;3.43;;;4.10;92.40;;;;;;5041805;28;20181;-82
2020/12/25 07:20:01;;;;;;;4.30;3.60;;;4.10;92.40;;;;;;5034866;28;20214;-80
2020/12/25 07:22:28;;;;;;;3.50;3.20;;;4.20;92.20;;;;;;5038928;28;20183;-82
2020/12/25 07:24:56;;;;;;;3.50;3.20;;;4.20;92.10;;;;;;5038842;28;20217;-81
2020/12/25 07:27:24;;;;;;;3.50;3.20;;;4.10;92.00;;;;;;5023279;28;20229;-82
2020/12/25 07:29:52;;;;;;;4.17;3.30;;;4.20;92.10;;;;;;5015412;28;20686;-83
2020/12/25 07:32:20;;;;;;;4.63;2.50;;;4.20;92.00;;;;;;5011575;28;20223;-80
2020/12/25 07:34:48;;;;;;;3.40;2.40;;;4.30;91.90;;;;;;5018015;28;20209;-81
2020/12/25 07:37:17;;;;;;;3.80;2.90;;;4.30;91.80;;;;;;5013210;28;20263;-82
2020/12/25 07:39:44;;;;;;;4.97;3.07;;;4.30;91.70;;;;;;5021237;28;20211;-81
2020/12/25 07:42:12;;;;;;;2.73;2.53;;;4.30;91.70;;;;;;5022193;28;20540;-83
2020/12/25 07:44:42;;;;;;;4.60;2.73;;;4.20;91.80;;;;;;5022594;28;20301;-80
2020/12/25 07:47:09;;;;;;;2.43;2.23;;;4.30;91.60;;;;;;5022671;28;20222;-80
2020/12/25 07:49:39;;;;;;;2.93;2.50;;;4.30;91.70;;;;;;5046257;28;20182;-80
2020/12/25 07:52:07;;;;;;;3.17;1.87;;;4.30;91.50;;;;;;5045810;28;20594;-83
2020/12/25 07:54:35;;;;;;;2.67;2.40;;;4.30;91.30;;;;;;5022136;28;20198;-80
2020/12/25 07:57:06;;;;;;;4.80;2.67;;;4.30;91.30;;;;;;5024592;28;20201;-81
2020/12/25 07:59:35;;;;;;;2.77;2.10;;;4.40;91.20;;;;;;5030041;28;20213;-80
2020/12/25 08:02:03;;;;;;;3.17;2.30;;;4.40;91.10;;;;;;5031953;28;21279;-80
2020/12/25 08:04:30;;;;;;;3.57;2.53;;;4.40;91.00;;;;;;5027538;28;20342;-81
2020/12/25 08:06:58;;;;;;;2.40;2.00;;;4.40;90.80;;;;;;5032598;28;20229;-81
2020/12/25 08:09:27;;;;;;;2.73;1.70;;;4.40;90.80;;;;;;5021550;28;20201;-82
2020/12/25 08:11:55;;;;;;;3.63;2.33;;;4.40;90.90;;;;;;5020270;28;20589;-80
2020/12/25 08:14:23;;;;;;;2.63;2.30;;;4.40;90.80;;;;;;5018619;28;20265;-80
2020/12/25 08:16:50;;;;;;;2.40;2.20;;;4.40;90.60;;;;;;5021656;28;20217;-79
2020/12/25 08:19:18;;;;;;;3.07;2.30;;;4.30;90.50;;;;;;5025704;28;20186;-83
2020/12/25 08:21:46;;;;;;;4.27;2.43;;;4.40;90.40;;;;;;5021650;28;20666;-82
2020/12/25 08:24:13;;;;;;;2.43;1.97;;;4.30;90.50;;;;;;5021200;28;20208;-81
2020/12/25 08:26:41;;;;;;;2.40;2.07;;;4.30;90.80;;;;;;5030061;28;20206;-82
2020/12/25 08:29:10;;;;;;;4.03;2.40;;;4.30;90.80;;;;;;5033760;28;20228;-82
2020/12/25 08:31:39;;;;;;;2.63;2.30;;;4.30;90.40;;;;;;5029913;28;20252;-82
2020/12/25 08:34:14;;;;;;;2.20;2.00;;;4.30;90.60;;;;;;5031233;28;20201;-82
2020/12/25 08:36:42;;;;;;;2.23;2.03;;;4.30;90.60;;;;;;5027520;28;20255;-82
2020/12/25 08:39:10;;;;;;;2.63;2.20;;;4.30;90.10;;;;;;5028054;28;20236;-80
2020/12/25 08:41:37;;;;;;;2.73;2.40;;;4.30;90.20;;;;;;5027652;28;20198;-82
2020/12/25 08:44:12;;;;;;;2.33;2.13;;;4.30;90.20;;;;;;5031393;28;20513;-80
2020/12/25 08:46:41;;;;;;;2.40;2.07;;;4.30;90.20;;;;;;5047444;28;20528;-80
2020/12/25 08:49:10;;;;;;;3.83;2.30;;;4.30;90.20;;;;;;5052168;28;20575;-82
2020/12/25 08:51:39;;;;;;;3.03;2.17;;;4.30;90.10;;;;;;5043502;28;20190;-83
2020/12/25 08:54:08;;;;;;;2.60;1.93;;;4.30;90.30;;;;;;5045396;28;20206;-81
2020/12/25 08:56:36;;;;;;;3.40;2.23;;;4.40;90.20;;;;;;5045259;28;20185;-81
2020/12/25 08:59:05;;;;;;;2.13;1.93;;;4.40;89.80;;;;;;5044784;28;20191;-82
2020/12/25 09:01:36;;;;;;;3.33;2.30;;;4.50;89.70;;;;;;5044507;28;20258;-81
2020/12/25 09:04:05;;;;;;;2.43;1.97;;;4.50;89.70;;;;;;5045093;28;20182;-81
2020/12/25 09:06:32;;;;;;;2.00;1.90;;;4.50;89.60;;;;;;5042288;28;20399;-82
2020/12/25 09:09:00;;;;;;;2.13;1.97;;;4.50;89.00;;;;;;5047246;28;20209;-81
2020/12/25 09:11:27;;;;;;;2.83;2.20;;;4.60;89.10;;;;;;5034897;28;20222;-83
2020/12/25 09:13:55;;;;;;;2.43;2.10;;;4.60;88.90;;;;;;5029987;28;20357;-81
2020/12/25 09:16:22;;;;;;;2.00;1.80;;;4.60;88.40;;;;;;5029309;28;20656;-79
2020/12/25 09:18:50;;;;;;;2.10;2.00;;;4.70;88.50;;;;;;5040008;28;20608;-81
2020/12/25 09:21:18;;;;;;;3.00;1.93;;;4.60;88.40;;;;;;5033472;28;20203;-82
2020/12/25 09:23:46;;;;;;;3.83;2.40;;;4.60;88.30;;;;;;5043614;28;20213;-81
2020/12/25 09:26:15;;;;;;;2.40;1.80;;;4.70;88.20;;;;;;5042371;28;20195;-82
2020/12/25 09:28:42;;;;;;;3.27;1.97;;;4.60;87.80;;;;;;5043982;28;20210;-81
2020/12/25 09:31:13;;;;;;;2.10;1.90;;;4.60;87.50;;;;;;5046116;28;20208;-81
2020/12/25 09:33:41;;;;;;;3.93;2.20;;;4.60;87.80;;;;;;5038129;28;20317;-80
2020/12/25 09:36:10;;;;;;;1.87;1.70;;;4.50;88.10;;;;;;5022473;28;20199;-82
2020/12/25 09:38:43;;;;;;;2.40;2.20;;;4.40;88.30;;;;;;5038570;28;20346;-82
2020/12/25 09:41:13;;;;;;;3.30;2.53;;;4.40;88.70;;;;;;5040059;28;20269;-82
2020/12/25 09:43:41;;;;;;;2.57;2.37;;;4.40;89.20;;;;;;5036678;28;20206;-82
2020/12/25 09:46:09;;;;;;;5.33;3.03;;;4.30;89.50;;;;;;5018821;28;20221;-81
2020/12/25 09:48:37;;;;;;;5.60;3.10;;;4.20;89.60;;;;;;5042527;28;20225;-82
2020/12/25 09:51:05;;;;;;;4.03;3.07;;;4.20;90.00;;;;;;5033855;28;20240;-80
2020/12/25 09:53:35;;;;;;;3.80;3.10;;;4.20;89.70;;;;;;5033547;28;20263;-81
2020/12/25 09:56:03;;;;;;;4.70;2.90;;;4.20;89.00;;;;;;5019163;28;20205;-81
2020/12/25 09:58:31;;;;;;;5.30;3.90;;;4.30;88.90;;;;;;5018925;28;20877;-82
2020/12/25 10:00:59;;;;;;;4.43;3.47;;;4.20;89.20;;;;;;5024419;28;20320;-80
2020/12/25 10:03:27;;;;;;;4.63;3.00;;;4.20;89.20;;;;;;5020426;28;20204;-81
2020/12/25 10:05:55;;;;;;;4.83;3.60;;;4.10;88.60;;;;;;5025581;28;20217;-81
2020/12/25 10:08:22;;;;;;;4.13;2.80;;;4.10;88.90;;;;;;5028560;28;20258;-81
2020/12/25 10:10:51;;;;;;;3.63;3.30;;;4.20;88.10;;;;;;5019959;28;20205;-82
2020/12/25 10:13:18;;;;;;;3.57;2.60;;;4.30;88.60;;;;;;5034669;28;20255;-81
2020/12/25 10:15:46;;;;;;;4.87;2.90;;;4.10;88.60;;;;;;5038978;28;20201;-82
2020/12/25 10:18:13;;;;;;;3.30;3.00;;;4.20;88.10;;;;;;5046480;28;20192;-80
2020/12/25 10:20:41;;;;;;;4.57;4.07;;;4.00;88.90;;;;;;5018987;28;20773;-81
2020/12/25 10:23:09;;;;;;;4.40;3.53;;;4.20;89.60;;;;;;5020903;28;20194;-80
2020/12/25 10:25:36;;;;;;;6.90;3.97;;;4.10;89.20;;;;;;5024670;28;20321;-82
2020/12/25 10:28:05;;;;;;;4.00;3.60;;;4.10;89.10;;;;;;5021245;28;20249;-81
2020/12/25 10:30:32;;;;;;;4.00;3.60;;;4.10;89.10;;;;;;5025998;28;20205;-83
2020/12/25 10:33:00;;;;;;;4.10;2.50;;;4.00;88.40;;;;;;5020830;28;20292;-82
2020/12/25 10:35:27;;;;;;;3.83;2.70;;;4.00;88.20;;;;;;5019037;28;20380;-80
2020/12/25 10:37:55;;;;;;;3.33;2.40;;;4.10;87.70;;;;;;5015039;28;20204;-81
2020/12/25 10:40:30;;;;;;;4.60;3.70;;;4.10;88.10;;;;;;5019841;28;20207;-82
2020/12/25 10:42:57;;;;;;;3.77;3.47;;;4.10;88.20;;;;;;5015550;28;20287;-81
2020/12/25 10:45:25;;;;;;;3.53;3.10;;;4.30;88.30;;;;;;5017034;28;20214;-80
2020/12/25 10:47:53;;;;;;;4.30;3.63;;;4.10;87.10;;;;;;5019062;28;20225;-82
2020/12/25 10:50:20;;;;;;;4.03;3.50;;;4.20;87.70;;;;;;5025337;28;20206;-81
2020/12/25 10:52:48;;;;;;;4.30;2.37;;;4.20;88.00;;;;;;5024284;28;20255;-80
2020/12/25 10:55:15;;;;;;;5.37;3.40;;;4.20;87.80;;;;;;5025820;28;20202;-82
2020/12/25 10:57:43;;;;;;;3.30;3.00;;;4.20;87.50;;;;;;5025132;28;20202;-80
2020/12/25 11:00:10;;;;;;;3.53;3.20;;;4.20;88.00;;;;;;5021876;28;20639;-81
2020/12/25 11:02:41;;;;;;;4.03;3.57;;;4.20;88.00;;;;;;5022033;28;20453;-80
2020/12/25 11:05:08;;;;;;;4.60;3.40;;;4.20;88.20;;;;;;5018956;28;20205;-80
2020/12/25 11:07:36;;;;;;;4.53;3.63;;;4.20;88.20;;;;;;5019543;28;20236;-81
2020/12/25 11:10:04;;;;;;;5.30;4.00;;;4.20;88.20;;;;;;5017127;28;20535;-83
2020/12/25 11:12:31;;;;;;;4.87;3.80;;;4.10;88.30;;;;;;5021109;28;20212;-81
2020/12/25 11:15:00;;;;;;;3.63;3.03;;;4.20;88.20;;;;;;5015144;28;20570;-81
2020/12/25 11:17:31;;;;;;;3.80;3.40;;;4.20;88.40;;;;;;5021031;28;20196;-79
2020/12/25 11:19:59;;;;;;;3.87;3.20;;;4.10;88.10;;;;;;5019076;28;20226;-80
2020/12/25 11:22:28;;;;;;;4.97;3.43;;;4.20;88.30;;;;;;5016788;28;20419;-81
2020/12/25 11:24:56;;;;;;;3.63;3.23;;;4.20;88.20;;;;;;5017599;28;20355;-81
2020/12/25 11:27:24;;;;;;;4.27;3.50;;;4.20;88.10;;;;;;5027873;28;20255;-83
2020/12/25 11:29:51;;;;;;;5.47;3.40;;;4.20;88.50;;;;;;5030128;28;20528;-83
2020/12/25 11:32:19;;;;;;;4.53;4.03;;;4.30;88.60;;;;;;5040770;28;20210;-80
2020/12/25 11:34:47;;;;;;;4.43;3.50;;;4.40;88.20;;;;;;5037050;28;20210;-80
2020/12/25 11:37:15;;;;;;;4.10;3.60;;;4.30;88.00;;;;;;5036490;28;20199;-80
2020/12/25 11:39:42;;;;;;;3.80;3.40;;;4.30;87.90;;;;;;5039433;28;20280;-81
2020/12/25 11:42:10;;;;;;;5.70;3.50;;;4.30;88.10;;;;;;5029045;28;20189;-81
2020/12/25 11:44:38;;;;;;;5.17;3.83;;;4.40;88.50;;;;;;5042283;28;20380;-81
2020/12/25 11:47:05;;;;;;;3.77;3.37;;;4.20;88.10;;;;;;5042912;28;20688;-82
2020/12/25 11:49:33;;;;;;;4.77;3.73;;;4.20;88.10;;;;;;5042394;28;20567;-81
2020/12/25 11:52:00;;;;;;;4.23;3.83;;;4.30;88.10;;;;;;5034487;28;20219;-80
2020/12/25 11:54:29;;;;;;;5.30;4.10;;;4.30;88.20;;;;;;5038163;28;20268;-80
2020/12/25 11:56:56;;;;;;;4.57;3.70;;;4.20;88.40;;;;;;5036356;28;20220;-81
2020/12/25 11:59:24;;;;;;;4.97;3.97;;;4.30;88.50;;;;;;5036280;28;20198;-81
2020/12/25 12:01:51;;;;;;;4.43;3.60;;;4.30;88.40;;;;;;5034254;28;20371;-81
2020/12/25 12:04:18;;;;;;;4.27;3.87;;;4.30;88.50;;;;;;5035387;28;20213;-80
2020/12/25 12:06:46;;;;;;;6.27;3.30;;;4.30;87.90;;;;;;5033373;28;20229;-80
2020/12/25 12:09:13;;;;;;;6.50;3.70;;;4.30;87.60;;;;;;5031804;28;20412;-81
2020/12/25 12:11:43;;;;;;;5.17;3.77;;;4.40;87.90;;;;;;5036009;28;20269;-83
2020/12/25 12:14:12;;;;;;;4.40;3.53;;;4.40;87.90;;;;;;5043763;28;20665;-80
2020/12/25 12:16:39;;;;;;;4.47;3.57;;;4.40;87.20;;;;;;5042612;28;20258;-79
2020/12/25 12:19:11;;;;;;;5.37;3.23;;;4.40;86.80;;;;;;5043842;28;20765;-81
2020/12/25 12:21:41;;;;;;;4.00;3.40;;;4.40;87.20;;;;;;5041710;28;20273;-82
2020/12/25 12:24:09;;;;;;;3.70;3.40;;;4.30;86.80;;;;;;5023919;28;20540;-81
2020/12/25 12:26:58;;;;;;;5.13;3.63;;;4.40;87.10;;;;;;5041453;28;20345;-82
2020/12/25 12:29:25;;;;;;;4.07;3.33;;;4.40;87.20;;;;;;5033710;28;20272;-81
2020/12/25 12:31:53;;;;;;;4.00;3.60;;;4.40;87.10;;;;;;5039162;28;20239;-81
2020/12/25 12:34:21;;;;;;;4.97;4.00;;;4.40;87.20;;;;;;5046742;28;20254;-81
2020/12/25 12:36:49;;;;;;;4.20;3.70;;;4.40;87.90;;;;;;5045194;28;20250;-83
2020/12/25 12:39:18;;;;;;;4.60;3.50;;;4.40;88.10;;;;;;5033048;28;20412;-82
2020/12/25 12:41:47;;;;;;;7.17;3.90;;;4.30;88.10;;;;;;5020039;28;20197;-82
2020/12/25 12:44:16;;;;;;;5.23;4.27;;;4.30;88.20;;;;;;5019031;28;20210;-80
2020/12/25 12:46:43;;;;;;;4.20;3.80;;;4.40;88.30;;;;;;5022994;28;20240;-80
2020/12/25 12:49:11;;;;;;;4.47;4.00;;;4.30;88.40;;;;;;5021136;28;20233;-81
2020/12/25 12:51:38;;;;;;;5.57;4.10;;;4.30;88.80;;;;;;5035311;28;20214;-80
2020/12/25 12:54:06;;;;;;;5.50;4.07;;;4.20;88.40;;;;;;5022011;28;20471;-83
2020/12/25 12:56:33;;;;;;;8.07;4.50;;;4.20;88.70;;;;;;5023107;28;20615;-82
2020/12/25 12:59:01;;;;;;;5.53;4.30;;;4.20;89.00;;;;;;5018379;28;20214;-82
2020/12/25 13:01:29;;;;;;;6.73;4.33;;;4.20;89.10;;;;;;5025474;28;20622;-83
2020/12/25 13:03:57;;;;;;;5.00;4.50;;;4.20;89.40;;;;;;5020438;28;20205;-81